WetterOnline ( https://www.wetteronline.de )

Wetter aktuell Böhla

Aktuelles Wetter: Oschatz (152m)

6-stündlich | Neueste Meldungen
Ortszeit Temperatur Wetter
Do, 22.08. 20:00 23.2° C leicht bewölkt
Do, 22.08. 14:00 24.6° C leicht bewölkt
Do, 22.08. 8:00 11.9° C wolkenlos
Do, 22.08. 2:00 10.3° C wolkig
Mi, 21.08. 20:00 20.7° C wolkenlos
Mi, 21.08. 14:00 21.5° C fast wolkenlos
Mi, 21.08. 8:00 14.3° C wolkenlos
Mi, 21.08. 2:00 14.6° C leichter Regen
Ortszeit Temperatur Wetter
Do, 22.08. 20:30 21.8° C wolkenlos
Do, 22.08. 20:20 21.8° C wolkenlos
Do, 22.08. 20:10 22.4° C fast wolkenlos
Do, 22.08. 20:00 23.2° C leicht bewölkt
Do, 22.08. 19:50 23.2° C leicht bewölkt
Do, 22.08. 19:40 23.7° C leicht bewölkt
Do, 22.08. 19:30 24.3° C leicht bewölkt
Do, 22.08. 19:00 24.9° C leicht bewölkt
Do, 22.08. 18:30 25.3° C wolkenlos
Do, 22.08. 18:00 25.0° C wolkenlos
Do, 22.08. 17:30 25.8° C wolkenlos
Ortszeit Relative Feuchte Sichtweite
Do, 22.08. 20:00 43% >70 km
Do, 22.08. 14:00 36% 55 km
Do, 22.08. 8:00 83% 30 km
Do, 22.08. 2:00 92% 40 km
Mi, 21.08. 20:00 46% 50 km
Mi, 21.08. 14:00 47% 60 km
Mi, 21.08. 8:00 88% 28 km
Mi, 21.08. 2:00 96% 19 km
Ortszeit Relative Feuchte Sichtweite
Do, 22.08. 20:30 48% >70 km
Do, 22.08. 20:20 48% -
Do, 22.08. 20:10 46% -
Do, 22.08. 20:00 43% >70 km
Do, 22.08. 19:50 43% -
Do, 22.08. 19:40 41% -
Do, 22.08. 19:30 39% >70 km
Do, 22.08. 19:00 37% >70 km
Do, 22.08. 18:30 35% >70 km
Do, 22.08. 18:00 33% >70 km
Do, 22.08. 17:30 33% 65 km
Ortszeit Niederschlagsmenge Niederschlagsart
Do, 22.08. 20:00 0.0 l/m2 in 12 Std. -
Do, 22.08. 14:00 0.0 l/m2 in 6 Std. -
Do, 22.08. 8:00 0.0 l/m2 in 12 Std. -
Do, 22.08. 2:00 0.0 l/m2 in 6 Std. -
Mi, 21.08. 20:00 0.0 l/m2 in 12 Std. -
Mi, 21.08. 14:00 0.0 l/m2 in 6 Std. -
Mi, 21.08. 8:00 4 l/m2 in 12 Std. Regen
Mi, 21.08. 2:00 3 l/m2 in 6 Std. Regen
Ortszeit Niederschlagsmenge Niederschlagsart
Do, 22.08. 20:30 0.0 l/m2 in 1 Std. -
Do, 22.08. 20:20 keine Meldung -
Do, 22.08. 20:10 keine Meldung -
Do, 22.08. 20:00 0.0 l/m2 in 1 Std. -
Do, 22.08. 19:50 keine Meldung -
Do, 22.08. 19:40 keine Meldung -
Do, 22.08. 19:30 0.0 l/m2 in 1 Std. -
Do, 22.08. 19:00 0.0 l/m2 in 1 Std. -
Do, 22.08. 18:30 0.0 l/m2 in 1 Std. -
Do, 22.08. 18:00 0.0 l/m2 in 1 Std. -
Do, 22.08. 17:30 0.0 l/m2 in 1 Std. -
Ortszeit Stärke Spitze Richtung
km/h Bft. km/h Grad Sektor
Do, 22.08. 20:00 9 2 22 60° NO
Do, 22.08. 14:00 9 2 24 120° SO
Do, 22.08. 8:00 4 1 7 200° S
Do, 22.08. 2:00 4 1 7 210° SW
Mi, 21.08. 20:00 4 1 25 210° SW
Mi, 21.08. 14:00 11 2 25 270° W
Mi, 21.08. 8:00 7 2 22 280° W
Mi, 21.08. 2:00 7 2 29 220° SW
Ortszeit Stärke Spitze Richtung
km/h Bft. km/h Grad Sektor
Do, 22.08. 20:30 6 1 11 60° NO
Do, 22.08. 20:20 6 1 - 60° NO
Do, 22.08. 20:10 7 2 - 60° NO
Do, 22.08. 20:00 9 2 15 60° NO
Do, 22.08. 19:50 9 2 - 60° NO
Do, 22.08. 19:40 7 2 - 70° O
Do, 22.08. 19:30 7 2 15 70° O
Do, 22.08. 19:00 7 2 18 100° O
Do, 22.08. 18:30 7 2 17 100° O
Do, 22.08. 18:00 7 2 22 110° O
Do, 22.08. 17:30 9 2 19 60° NO
Ortszeit Untergrenze Bedeckung Gattung
total tief tief mittel hoch
Do, 22.08. 20:00 10500 m 5/8 0/8 - - -
Do, 22.08. 14:00 1800 m 2/8 2/8 - - -
Do, 22.08. 8:00 - 0/8 0/8 - - -
Do, 22.08. 2:00 8700 m 8/8 0/8 - - -
Mi, 21.08. 20:00 - 0/8 0/8 - - -
Mi, 21.08. 14:00 1380 m 1/8 1/8 - - -
Mi, 21.08. 8:00 - 0/8 0/8 - - -
Mi, 21.08. 2:00 1800 m 7/8 7/8 - - -
Ortszeit Bedeckungsgrad in Achtel und Wolkenuntergrenze
Do, 22.08. 20:30 keine Wolken
Do, 22.08. 20:20 keine Wolken
Do, 22.08. 20:10 1(10500m)
Do, 22.08. 20:00 5(10500m)
Do, 22.08. 19:50 5(10500m)
Do, 22.08. 19:40 6(10500m)
Do, 22.08. 19:30 3(10500m)
Do, 22.08. 19:00 7(10500m)
Do, 22.08. 18:30 4(10500m)
Do, 22.08. 18:00 keine Wolken
Do, 22.08. 17:30 keine Wolken
Ortszeit Luftdruck NN (hPa) Tendenz (hPa in 3 Std.)
Do, 22.08. 20:00 1025 - 0,2
Do, 22.08. 14:00 1026 - 1,5
Do, 22.08. 8:00 1029 + 0,1
Do, 22.08. 2:00 1029 + 0,1
Mi, 21.08. 20:00 1028 - 0,1
Mi, 21.08. 14:00 1028 - 0,4
Mi, 21.08. 8:00 1028 + 1,6
Mi, 21.08. 2:00 1026 + 1,1
Ortszeit Luftdruck NN (hPa) Tendenz (hPa in 3 Std.)
Do, 22.08. 20:30 1025 + 0,2
Do, 22.08. 20:20 1025 keine Meldung
Do, 22.08. 20:10 1025 keine Meldung
Do, 22.08. 20:00 1025 - 0,2
Do, 22.08. 19:50 1025 keine Meldung
Do, 22.08. 19:40 1025 keine Meldung
Do, 22.08. 19:30 1025 - 0,5
Do, 22.08. 19:00 1025 - 0,7
Do, 22.08. 18:30 1025 - 0,9
Do, 22.08. 18:00 1025 - 1,0
Do, 22.08. 17:30 1025 - 1,3
Ortszeit Schneehöhe (cm)
Do, 22.08. 20:00 -
Do, 22.08. 14:00 -
Do, 22.08. 8:00 -
Do, 22.08. 2:00 -
Mi, 21.08. 20:00 -
Mi, 21.08. 14:00 -
Mi, 21.08. 8:00 -
Mi, 21.08. 2:00 -
Ortszeit Schneehöhe (cm)
Do, 22.08. 20:30 -
Do, 22.08. 20:20 -
Do, 22.08. 20:10 -
Do, 22.08. 20:00 -
Do, 22.08. 19:50 -
Do, 22.08. 19:40 -
Do, 22.08. 19:30 -
Do, 22.08. 19:00 -
Do, 22.08. 18:30 -
Do, 22.08. 18:00 -
Do, 22.08. 17:30 -
Link zu dieser Seite / Seite empfehlen

Das Wetter in ...